createdAt,value
2016-05-06T00:00:57.134Z,0
2016-05-06T00:01:57.043Z,0
2016-05-06T00:02:57.078Z,0
2016-05-06T00:03:57.143Z,0
2016-05-06T00:04:57.192Z,0
2016-05-06T00:05:57.397Z,0
2016-05-06T00:06:57.447Z,0
2016-05-06T00:07:57.512Z,0
2016-05-06T00:08:57.547Z,0
2016-05-06T00:09:57.611Z,0
2016-05-06T00:10:58.224Z,0
2016-05-06T00:11:57.710Z,0
2016-05-06T00:12:57.777Z,0
2016-05-06T00:13:57.810Z,0
2016-05-06T00:14:57.860Z,0
2016-05-06T00:15:57.909Z,0
2016-05-06T00:16:57.974Z,0
2016-05-06T00:17:58.007Z,0
2016-05-06T00:18:57.902Z,0
2016-05-06T00:19:58.138Z,0
2016-05-06T00:20:58.181Z,0
2016-05-06T00:21:58.231Z,0
2016-05-06T00:22:58.265Z,0
2016-05-06T00:23:58.158Z,0
2016-05-06T00:24:58.379Z,0
2016-05-06T00:25:58.616Z,0
2016-05-06T00:26:58.479Z,0
2016-05-06T00:27:58.388Z,0
2016-05-06T00:28:58.593Z,0
2016-05-06T00:29:58.487Z,0
2016-05-06T00:30:58.693Z,0
2016-05-06T00:31:58.757Z,0
2016-05-06T00:32:58.792Z,0
2016-05-06T00:33:58.842Z,0
2016-05-06T00:34:58.750Z,0
2016-05-06T00:35:58.941Z,0
2016-05-06T00:36:58.990Z,0
2016-05-06T00:37:59.039Z,0
2016-05-06T00:38:58.792Z,0
2016-05-06T00:39:59.154Z,0
2016-05-06T00:40:59.219Z,0
2016-05-06T00:41:59.097Z,0
2016-05-06T00:42:59.147Z,0
2016-05-06T00:43:59.369Z,0
2016-05-06T00:44:59.417Z,0
2016-05-06T00:45:59.467Z,0
2016-05-06T00:46:59.532Z,0
2016-05-06T00:47:59.566Z,0
2016-05-06T00:48:59.600Z,0
2016-05-06T00:49:59.666Z,0
2016-05-06T00:50:59.715Z,0
2016-05-06T00:51:59.796Z,0
2016-05-06T00:52:59.846Z,0
2016-05-06T00:53:59.864Z,0
2016-05-06T00:54:59.929Z,0
2016-05-06T00:55:59.994Z,0
2016-05-06T00:57:00.029Z,0
2016-05-06T00:58:00.077Z,0
2016-05-06T00:59:00.143Z,0
2016-05-06T01:00:00.176Z,0
2016-05-06T01:01:00.071Z,0
2016-05-06T01:02:00.276Z,0
2016-05-06T01:03:00.341Z,0
2016-05-06T01:04:00.109Z,0
2016-05-06T01:05:00.112Z,0
2016-05-06T01:06:00.490Z,0
2016-05-06T01:07:00.384Z,0
2016-05-06T01:08:00.433Z,0
2016-05-06T01:09:00.654Z,0
2016-05-06T01:10:00.548Z,0
2016-05-06T01:11:01.862Z,0
2016-05-06T01:12:00.819Z,0
2016-05-06T01:13:00.680Z,0
2016-05-06T01:14:00.746Z,0
2016-05-06T01:15:00.952Z,0
2016-05-06T01:16:01.048Z,0
2016-05-06T01:17:01.066Z,0
2016-05-06T01:18:01.131Z,0
2016-05-06T01:19:01.166Z,0
2016-05-06T01:20:01.231Z,0
2016-05-06T01:21:01.139Z,0
2016-05-06T01:22:01.157Z,0
2016-05-06T01:23:01.224Z,0
2016-05-06T01:24:01.413Z,0
2016-05-06T01:25:01.463Z,0
2016-05-06T01:26:01.543Z,0
2016-05-06T01:27:01.578Z,0
2016-05-06T01:28:01.612Z,0
2016-05-06T01:29:01.677Z,0
2016-05-06T01:30:01.726Z,0
2016-05-06T01:31:01.620Z,0
2016-05-06T01:32:01.669Z,0
2016-05-06T01:33:01.875Z,0
2016-05-06T01:34:01.924Z,0
2016-05-06T01:35:01.989Z,0
2016-05-06T01:36:02.040Z,0
2016-05-06T01:37:01.917Z,0
2016-05-06T01:38:02.153Z,0
2016-05-06T01:39:02.219Z,0
2016-05-06T01:40:02.238Z,0
2016-05-06T01:41:02.381Z,0
2016-05-06T01:42:02.336Z,0
2016-05-06T01:43:02.418Z,0
2016-05-06T01:44:02.311Z,0
2016-05-06T01:45:02.501Z,0
2016-05-06T01:46:02.535Z,0
2016-05-06T01:47:02.600Z,0
2016-05-06T01:48:02.650Z,0
2016-05-06T01:49:02.684Z,0
2016-05-06T01:50:02.577Z,0
2016-05-06T01:51:02.813Z,0
2016-05-06T01:52:02.692Z,0
2016-05-06T01:53:02.898Z,0
2016-05-06T01:54:02.791Z,0
2016-05-06T01:55:03.012Z,0
2016-05-06T01:56:02.906Z,0
2016-05-06T01:57:03.111Z,0
2016-05-06T01:58:03.005Z,0
2016-05-06T01:59:03.054Z,0
2016-05-06T02:00:03.119Z,0
2016-05-06T02:01:03.169Z,0
2016-05-06T02:02:03.374Z,0
2016-05-06T02:03:03.424Z,0
2016-05-06T02:04:03.458Z,0
2016-05-06T02:05:03.524Z,0
2016-05-06T02:06:03.573Z,0
2016-05-06T02:07:03.623Z,0
2016-05-06T02:08:03.531Z,0
2016-05-06T02:09:03.737Z,0
2016-05-06T02:10:03.631Z,0
2016-05-06T02:11:03.914Z,0
2016-05-06T02:12:03.870Z,0
2016-05-06T02:13:03.936Z,0
2016-05-06T02:14:03.986Z,0
2016-05-06T02:15:04.066Z,0
2016-05-06T02:16:04.100Z,0
2016-05-06T02:17:04.009Z,0
2016-05-06T02:18:04.184Z,0
2016-05-06T02:19:04.233Z,0
2016-05-06T02:20:04.330Z,0
2016-05-06T02:21:04.364Z,0
2016-05-06T02:22:04.397Z,0
2016-05-06T02:23:04.494Z,0
2016-05-06T02:24:04.531Z,0
2016-05-06T02:25:04.550Z,0
2016-05-06T02:26:04.975Z,0
2016-05-06T02:27:04.524Z,0
2016-05-06T02:28:04.698Z,0
2016-05-06T02:29:04.764Z,0
2016-05-06T02:30:04.797Z,0
2016-05-06T02:31:04.895Z,0
2016-05-06T02:32:04.912Z,0
2016-05-06T02:33:04.961Z,0
2016-05-06T02:34:05.058Z,0
2016-05-06T02:35:05.077Z,0
2016-05-06T02:36:05.127Z,0
2016-05-06T02:37:05.191Z,0
2016-05-06T02:38:05.101Z,0
2016-05-06T02:39:05.260Z,0
2016-05-06T02:40:05.356Z,0
2016-05-06T02:41:05.421Z,0
2016-05-06T02:42:05.423Z,0
2016-05-06T02:43:05.520Z,0
2016-05-06T02:44:05.524Z,0
2016-05-06T02:45:05.447Z,0
2016-05-06T02:46:05.668Z,0
2016-05-06T02:47:05.672Z,0
2016-05-06T02:48:05.737Z,0
2016-05-06T02:49:05.832Z,0
2016-05-06T02:50:05.835Z,0
2016-05-06T02:51:05.730Z,0
2016-05-06T02:52:05.826Z,0
2016-05-06T02:53:06.015Z,0
2016-05-06T02:54:06.051Z,0
2016-05-06T02:55:06.130Z,0
2016-05-06T02:56:06.071Z,0
2016-05-06T02:57:06.229Z,0
2016-05-06T02:58:06.248Z,0
2016-05-06T02:59:06.298Z,0
2016-05-06T03:00:06.379Z,0
2016-05-06T03:01:06.412Z,0
2016-05-06T03:02:06.446Z,0
2016-05-06T03:03:06.387Z,0
2016-05-06T03:04:06.436Z,0
2016-05-06T03:05:06.611Z,0
2016-05-06T03:06:06.691Z,0
2016-05-06T03:07:06.741Z,0
2016-05-06T03:08:06.775Z,0
2016-05-06T03:09:06.652Z,0
2016-05-06T03:10:06.702Z,0
2016-05-06T03:11:07.377Z,0
2016-05-06T03:12:06.974Z,0
2016-05-06T03:13:07.007Z,0
2016-05-06T03:14:07.150Z,0
2016-05-06T03:15:06.981Z,0
2016-05-06T03:16:07.172Z,0
2016-05-06T03:17:07.252Z,0
2016-05-06T03:18:07.146Z,0
2016-05-06T03:19:07.335Z,0
2016-05-06T03:20:07.260Z,0
2016-05-06T03:21:07.466Z,0
2016-05-06T03:22:07.484Z,0
2016-05-06T03:23:07.534Z,0
2016-05-06T03:24:07.459Z,0
2016-05-06T03:25:07.649Z,0
2016-05-06T03:26:08.542Z,0
2016-05-06T03:27:07.810Z,0
2016-05-06T03:28:07.829Z,0
2016-05-06T03:29:07.847Z,0
2016-05-06T03:30:07.912Z,0
2016-05-06T03:31:07.993Z,0
2016-05-06T03:32:07.980Z,0
2016-05-06T03:33:08.061Z,0
2016-05-06T03:34:08.095Z,0
2016-05-06T03:35:07.878Z,0
2016-05-06T03:36:08.209Z,0
2016-05-06T03:37:08.244Z,0
2016-05-06T03:38:08.340Z,0
2016-05-06T03:39:08.389Z,0
2016-05-06T03:40:08.236Z,0
2016-05-06T03:41:08.389Z,0
2016-05-06T03:42:08.547Z,0
2016-05-06T03:43:08.597Z,0
2016-05-06T03:44:08.727Z,0
2016-05-06T03:45:08.729Z,0
2016-05-06T03:46:08.685Z,0
2016-05-06T03:47:08.641Z,0
2016-05-06T03:48:08.800Z,0
2016-05-06T03:49:08.896Z,0
2016-05-06T03:50:08.789Z,0
2016-05-06T03:51:08.979Z,0
2016-05-06T03:52:09.044Z,0
2016-05-06T03:53:09.094Z,0
2016-05-06T03:54:09.112Z,0
2016-05-06T03:55:09.038Z,0
2016-05-06T03:56:09.290Z,0
2016-05-06T03:57:09.277Z,0
2016-05-06T03:58:09.170Z,0
2016-05-06T03:59:09.407Z,0
2016-05-06T04:00:09.426Z,0
2016-05-06T04:01:09.523Z,0
2016-05-06T04:02:09.525Z,0
2016-05-06T04:03:09.417Z,0
2016-05-06T04:04:09.671Z,0
2016-05-06T04:05:09.548Z,0
2016-05-06T04:06:09.722Z,0
2016-05-06T04:07:09.820Z,0
2016-05-06T04:08:09.729Z,0
2016-05-06T04:09:09.887Z,0
2016-05-06T04:10:09.983Z,0
2016-05-06T04:11:09.565Z,0
2016-05-06T04:12:09.894Z,0
2016-05-06T04:13:09.945Z,0
2016-05-06T04:14:10.150Z,0
2016-05-06T04:15:10.060Z,0
2016-05-06T04:16:10.125Z,0
2016-05-06T04:17:10.299Z,0
2016-05-06T04:18:10.396Z,0
2016-05-06T04:19:10.116Z,0
2016-05-06T04:20:10.449Z,0
2016-05-06T04:21:10.513Z,0
2016-05-06T04:22:10.438Z,0
2016-05-06T04:23:10.299Z,0
2016-05-06T04:24:10.662Z,0
2016-05-06T04:25:10.727Z,0
2016-05-06T04:26:10.948Z,0
2016-05-06T04:27:10.685Z,0
2016-05-06T04:28:10.860Z,0
2016-05-06T04:29:10.941Z,0
2016-05-06T04:30:10.850Z,0
2016-05-06T04:31:11.009Z,0
2016-05-06T04:32:11.106Z,0
2016-05-06T04:33:11.155Z,0
2016-05-06T04:34:11.173Z,0
2016-05-06T04:35:11.239Z,0
2016-05-06T04:36:11.007Z,0
2016-05-06T04:37:11.322Z,0
2016-05-06T04:38:11.434Z,0
2016-05-06T04:39:11.452Z,0
2016-05-06T04:40:11.517Z,0
2016-05-06T04:41:11.270Z,0
2016-05-06T04:42:11.586Z,0
2016-05-06T04:43:11.478Z,0
2016-05-06T04:44:11.716Z,0
2016-05-06T04:45:11.750Z,0
2016-05-06T04:46:11.799Z,0
2016-05-06T04:47:11.739Z,0
2016-05-06T04:48:11.742Z,0
2016-05-06T04:49:11.933Z,0
2016-05-06T04:50:12.029Z,0
2016-05-06T04:51:12.047Z,0
2016-05-06T04:52:12.143Z,0
2016-05-06T04:53:12.162Z,0
2016-05-06T04:54:12.196Z,0
2016-05-06T04:55:12.293Z,0
2016-05-06T04:56:12.232Z,0
2016-05-06T04:57:12.360Z,0
2016-05-06T04:58:12.301Z,0
2016-05-06T04:59:12.334Z,0
2016-05-06T05:00:12.509Z,0
2016-05-06T05:01:12.573Z,0
2016-05-06T05:02:12.655Z,0
2016-05-06T05:03:12.657Z,0
2016-05-06T05:04:12.581Z,0
2016-05-06T05:05:12.648Z,0
2016-05-06T05:06:12.665Z,0
2016-05-06T05:07:12.731Z,0
2016-05-06T05:08:12.967Z,0
2016-05-06T05:09:12.987Z,0
2016-05-06T05:10:13.020Z,0
2016-05-06T05:11:13.468Z,0
2016-05-06T05:12:13.204Z,0
2016-05-06T05:13:13.301Z,4
2016-05-06T05:14:13.429Z,0
2016-05-06T05:15:13.511Z,0
2016-05-06T05:16:13.608Z,0
2016-05-06T05:17:13.659Z,0
2016-05-06T05:18:13.570Z,0
2016-05-06T05:19:13.823Z,0
2016-05-06T05:20:13.889Z,0
2016-05-06T05:21:13.920Z,0
2016-05-06T05:22:13.866Z,0
2016-05-06T05:23:14.063Z,0
2016-05-06T05:24:13.930Z,0
2016-05-06T05:25:14.159Z,0
2016-05-06T05:26:14.212Z,0
2016-05-06T05:27:14.265Z,0
2016-05-06T05:28:14.316Z,0
2016-05-06T05:29:14.384Z,0
2016-05-06T05:30:14.451Z,0
2016-05-06T05:31:14.517Z,0
2016-05-06T05:32:14.521Z,0
2016-05-06T05:33:14.602Z,0
2016-05-06T05:34:14.497Z,0
2016-05-06T05:35:14.359Z,0
2016-05-06T05:36:14.738Z,0
2016-05-06T05:37:14.678Z,0
2016-05-06T05:38:14.838Z,0
2016-05-06T05:39:14.888Z,0
2016-05-06T05:40:14.985Z,0
2016-05-06T05:41:16.347Z,0
2016-05-06T05:42:15.084Z,0
2016-05-06T05:43:15.102Z,0
2016-05-06T05:44:15.027Z,0
2016-05-06T05:45:15.233Z,0
2016-05-06T05:46:15.094Z,0
2016-05-06T05:47:15.301Z,0
2016-05-06T05:48:15.382Z,0
2016-05-06T05:49:15.244Z,0
2016-05-06T05:50:15.449Z,0
2016-05-06T05:51:15.390Z,0
2016-05-06T05:52:15.407Z,0
2016-05-06T05:53:15.613Z,0
2016-05-06T05:54:15.710Z,0
2016-05-06T05:55:15.729Z,0
2016-05-06T05:56:15.653Z,0
2016-05-06T05:57:15.531Z,0
2016-05-06T05:58:15.721Z,0
2016-05-06T05:59:16.676Z,0
2016-05-06T06:00:15.851Z,0
2016-05-06T06:01:15.885Z,0
2016-05-06T06:02:16.137Z,0
2016-05-06T06:03:16.000Z,0
2016-05-06T06:04:16.190Z,0
2016-05-06T06:05:16.255Z,0
2016-05-06T06:06:16.305Z,0
2016-05-06T06:07:16.339Z,0
2016-05-06T06:08:16.389Z,0
2016-05-06T06:09:16.438Z,0
2016-05-06T06:10:16.519Z,0
2016-05-06T06:11:17.115Z,0
2016-05-06T06:12:16.446Z,12
2016-05-06T06:13:16.683Z,12
2016-05-06T06:14:16.733Z,12
2016-05-06T06:15:16.752Z,12
2016-05-06T06:16:16.816Z,16
2016-05-06T06:17:16.740Z,12
2016-05-06T06:18:16.885Z,12
2016-05-06T06:19:16.965Z,12
2016-05-06T06:20:16.843Z,8
2016-05-06T06:21:17.096Z,8
2016-05-06T06:22:16.988Z,12
2016-05-06T06:23:17.007Z,12
2016-05-06T06:24:17.243Z,12
2016-05-06T06:25:17.294Z,12
2016-05-06T06:26:17.499Z,12
2016-05-06T06:27:17.377Z,12
2016-05-06T06:28:17.457Z,12
2016-05-06T06:29:17.460Z,12
2016-05-06T06:30:17.384Z,12
2016-05-06T06:31:17.607Z,12
2016-05-06T06:32:17.625Z,12
2016-05-06T06:33:17.377Z,12
2016-05-06T06:34:17.724Z,16
2016-05-06T06:35:17.773Z,12
2016-05-06T06:36:17.853Z,12
2016-05-06T06:37:17.889Z,12
2016-05-06T06:38:17.938Z,12
2016-05-06T06:39:18.034Z,12
2016-05-06T06:40:18.069Z,12
2016-05-06T06:41:17.930Z,16
2016-05-06T06:42:18.167Z,12
2016-05-06T06:43:18.216Z,16
2016-05-06T06:44:18.235Z,16
2016-05-06T06:45:18.300Z,16
2016-05-06T06:46:18.381Z,16
2016-05-06T06:47:18.400Z,16
2016-05-06T06:48:18.496Z,20
2016-05-06T06:49:18.374Z,16
2016-05-06T06:50:18.548Z,20
2016-05-06T06:51:18.613Z,24
2016-05-06T06:52:18.679Z,24
2016-05-06T06:53:18.697Z,24
2016-05-06T06:54:18.777Z,24
2016-05-06T06:55:18.827Z,28
2016-05-06T06:56:18.861Z,28
2016-05-06T06:57:18.754Z,28
2016-05-06T06:58:18.992Z,28
2016-05-06T06:59:18.837Z,28
2016-05-06T07:00:19.091Z,32
2016-05-06T07:01:19.125Z,32
2016-05-06T07:02:19.159Z,32
2016-05-06T07:03:19.240Z,32
2016-05-06T07:04:19.289Z,36
2016-05-06T07:05:19.322Z,36
2016-05-06T07:06:19.247Z,32
2016-05-06T07:07:19.453Z,36
2016-05-06T07:08:19.472Z,36
2016-05-06T07:09:19.552Z,36
2016-05-06T07:10:19.618Z,36
2016-05-06T07:11:19.620Z,40
2016-05-06T07:12:19.560Z,40
2016-05-06T07:13:19.438Z,40
2016-05-06T07:14:19.660Z,40
2016-05-06T07:15:19.708Z,40
2016-05-06T07:16:19.883Z,44
2016-05-06T07:17:19.793Z,40
2016-05-06T07:18:20.014Z,44
2016-05-06T07:19:20.033Z,44
2016-05-06T07:20:20.097Z,44
2016-05-06T07:21:20.007Z,44
2016-05-06T07:22:19.868Z,48
2016-05-06T07:23:20.251Z,48
2016-05-06T07:24:20.316Z,48
2016-05-06T07:25:20.365Z,48
2016-05-06T07:26:20.415Z,44
2016-05-06T07:27:20.293Z,48
2016-05-06T07:28:20.531Z,48
2016-05-06T07:29:20.423Z,52
2016-05-06T07:30:20.442Z,48
2016-05-06T07:31:20.507Z,48
2016-05-06T07:32:20.745Z,48
2016-05-06T07:33:20.591Z,48
2016-05-06T07:34:20.812Z,52
2016-05-06T07:35:20.892Z,52
2016-05-06T07:36:20.911Z,52
2016-05-06T07:37:20.992Z,48
2016-05-06T07:38:20.994Z,48
2016-05-06T07:39:20.919Z,52
2016-05-06T07:40:21.016Z,52
2016-05-06T07:41:21.362Z,48
2016-05-06T07:42:21.224Z,52
2016-05-06T07:43:21.149Z,52
2016-05-06T07:44:21.183Z,52
2016-05-06T07:45:21.372Z,52
2016-05-06T07:46:21.454Z,52
2016-05-06T07:47:21.503Z,48
2016-05-06T07:48:21.365Z,44
2016-05-06T07:49:21.619Z,44
2016-05-06T07:50:21.621Z,44
2016-05-06T07:51:21.717Z,44
2016-05-06T07:52:21.751Z,48
2016-05-06T07:53:21.785Z,52
2016-05-06T07:54:21.553Z,52
2016-05-06T07:55:21.915Z,52
2016-05-06T07:56:22.668Z,52
2016-05-06T07:57:22.015Z,52
2016-05-06T07:58:22.079Z,52
2016-05-06T07:59:21.927Z,44
2016-05-06T08:00:21.992Z,44
2016-05-06T08:01:22.087Z,48
2016-05-06T08:02:22.247Z,48
2016-05-06T08:03:22.328Z,44
2016-05-06T08:04:22.361Z,52
2016-05-06T08:05:22.426Z,52
2016-05-06T08:06:22.492Z,52
2016-05-06T08:07:22.339Z,52
2016-05-06T08:08:22.559Z,56
2016-05-06T08:09:22.641Z,56
2016-05-06T08:10:22.659Z,56
2016-05-06T08:11:23.271Z,56
2016-05-06T08:12:22.820Z,56
2016-05-06T08:13:22.682Z,56
2016-05-06T08:14:22.858Z,52
2016-05-06T08:15:22.953Z,56
2016-05-06T08:16:22.847Z,56
2016-05-06T08:17:23.083Z,56
2016-05-06T08:18:22.758Z,56
2016-05-06T08:19:23.152Z,56
2016-05-06T08:20:23.216Z,52
2016-05-06T08:21:23.079Z,56
2016-05-06T08:22:23.129Z,56
2016-05-06T08:23:23.382Z,56
2016-05-06T08:24:23.087Z,56
2016-05-06T08:25:23.449Z,56
2016-05-06T08:26:23.780Z,56
2016-05-06T08:27:23.564Z,56
2016-05-06T08:28:23.442Z,56
2016-05-06T08:29:23.663Z,56
2016-05-06T08:30:23.587Z,56
2016-05-06T08:31:23.590Z,56
2016-05-06T08:32:23.656Z,56
2016-05-06T08:33:23.893Z,56
2016-05-06T08:34:23.911Z,56
2016-05-06T08:35:23.804Z,56
2016-05-06T08:36:24.057Z,56
2016-05-06T08:37:24.075Z,56
2016-05-06T08:38:24.125Z,56
2016-05-06T08:39:24.205Z,56
2016-05-06T08:40:24.240Z,56
2016-05-06T08:41:23.992Z,52
2016-05-06T08:42:24.323Z,52
2016-05-06T08:43:24.075Z,52
2016-05-06T08:44:24.297Z,56
2016-05-06T08:45:24.331Z,52
2016-05-06T08:46:24.380Z,56
2016-05-06T08:47:24.618Z,56
2016-05-06T08:48:24.636Z,56
2016-05-06T08:49:24.529Z,52
2016-05-06T08:50:24.610Z,52
2016-05-06T08:51:24.816Z,52
2016-05-06T08:52:24.834Z,48
2016-05-06T08:53:24.931Z,48
2016-05-06T08:54:24.793Z,52
2016-05-06T08:55:25.030Z,52
2016-05-06T08:56:24.907Z,52
2016-05-06T08:57:25.098Z,48
2016-05-06T08:58:25.054Z,48
2016-05-06T08:59:24.916Z,48
2016-05-06T09:00:24.949Z,48
2016-05-06T09:01:25.343Z,48
2016-05-06T09:02:25.236Z,52
2016-05-06T09:03:25.255Z,52
2016-05-06T09:04:25.492Z,52
2016-05-06T09:05:25.573Z,48
2016-05-06T09:06:25.419Z,48
2016-05-06T09:07:25.672Z,48
2016-05-06T09:08:25.674Z,48
2016-05-06T09:09:25.598Z,48
2016-05-06T09:10:25.820Z,48
2016-05-06T09:11:25.714Z,48
2016-05-06T09:12:25.889Z,48
2016-05-06T09:13:25.969Z,48
2016-05-06T09:14:25.987Z,48
2016-05-06T09:15:26.036Z,48
2016-05-06T09:16:26.133Z,48
2016-05-06T09:17:25.995Z,48
2016-05-06T09:18:26.045Z,48
2016-05-06T09:19:26.282Z,40
2016-05-06T09:20:26.332Z,40
2016-05-06T09:21:26.396Z,44
2016-05-06T09:22:26.400Z,40
2016-05-06T09:23:26.355Z,44
2016-05-06T09:24:26.545Z,36
2016-05-06T09:25:26.252Z,36
2016-05-06T09:26:27.583Z,40
2016-05-06T09:27:26.710Z,40
2016-05-06T09:28:26.729Z,40
2016-05-06T09:29:26.777Z,40
2016-05-06T09:30:26.859Z,40
2016-05-06T09:31:26.892Z,44
2016-05-06T09:32:26.942Z,40
2016-05-06T09:33:26.992Z,36
2016-05-06T09:34:27.026Z,36
2016-05-06T09:35:27.123Z,36
2016-05-06T09:36:27.171Z,36
2016-05-06T09:37:27.174Z,40
2016-05-06T09:38:27.271Z,36
2016-05-06T09:39:27.164Z,36
2016-05-06T09:40:27.339Z,36
2016-05-06T09:41:27.498Z,36
2016-05-06T09:42:27.953Z,36
2016-05-06T09:43:27.972Z,36
2016-05-06T09:44:28.584Z,36
2016-05-06T09:45:28.165Z,36
2016-05-06T09:46:28.495Z,36
2016-05-06T09:47:27.701Z,36
2016-05-06T09:48:27.767Z,36
2016-05-06T09:49:28.581Z,36
2016-05-06T09:50:27.896Z,36
2016-05-06T09:51:27.759Z,36
2016-05-06T09:52:27.980Z,36
2016-05-06T09:53:28.046Z,36
2016-05-06T09:54:27.752Z,36
2016-05-06T09:55:27.972Z,36
2016-05-06T09:56:28.475Z,36
2016-05-06T09:57:28.088Z,40
2016-05-06T09:58:28.355Z,40
2016-05-06T09:59:28.327Z,40
2016-05-06T10:00:28.407Z,40
2016-05-06T10:01:28.474Z,40
2016-05-06T10:02:28.476Z,32
2016-05-06T10:03:28.540Z,28
2016-05-06T10:04:28.326Z,28
2016-05-06T10:05:28.343Z,36
2016-05-06T10:06:28.705Z,36
2016-05-06T10:07:28.787Z,36
2016-05-06T10:08:28.648Z,32
2016-05-06T10:09:28.854Z,32
2016-05-06T10:10:28.935Z,36
2016-05-06T10:11:29.422Z,36
2016-05-06T10:12:28.847Z,36
2016-05-06T10:13:29.068Z,32
2016-05-06T10:14:28.978Z,36
2016-05-06T10:15:28.995Z,36
2016-05-06T10:16:28.920Z,32
2016-05-06T10:17:29.297Z,32
2016-05-06T10:18:29.316Z,32
2016-05-06T10:19:29.366Z,32
2016-05-06T10:20:29.461Z,32
2016-05-06T10:21:29.481Z,32
2016-05-06T10:22:29.249Z,32
2016-05-06T10:23:29.455Z,32
2016-05-06T10:24:29.660Z,32
2016-05-06T10:25:29.724Z,32
2016-05-06T10:26:32.697Z,32
2016-05-06T10:27:29.668Z,32
2016-05-06T10:28:29.718Z,32
2016-05-06T10:29:29.736Z,28
2016-05-06T10:30:29.645Z,32
2016-05-06T10:31:29.898Z,32
2016-05-06T10:32:30.057Z,32
2016-05-06T10:33:29.950Z,32
2016-05-06T10:34:30.031Z,32
2016-05-06T10:35:30.237Z,32
2016-05-06T10:36:30.145Z,28
2016-05-06T10:37:30.164Z,28
2016-05-06T10:38:30.354Z,32
2016-05-06T10:39:30.294Z,28
2016-05-06T10:40:30.187Z,28
2016-05-06T10:41:30.659Z,32
2016-05-06T10:42:30.459Z,28
2016-05-06T10:43:30.508Z,28
2016-05-06T10:44:30.526Z,28
2016-05-06T10:45:30.764Z,28
2016-05-06T10:46:30.859Z,28
2016-05-06T10:47:30.675Z,28
2016-05-06T10:48:30.912Z,28
2016-05-06T10:49:30.946Z,28
2016-05-06T10:50:30.871Z,28
2016-05-06T10:51:30.920Z,24
2016-05-06T10:52:31.110Z,24
2016-05-06T10:53:31.003Z,28
2016-05-06T10:54:30.913Z,24
2016-05-06T10:55:31.244Z,24
2016-05-06T10:56:30.997Z,24
2016-05-06T10:57:31.421Z,28
2016-05-06T10:58:31.408Z,24
2016-05-06T10:59:31.457Z,24
2016-05-06T11:00:31.555Z,24
2016-05-06T11:01:31.571Z,24
2016-05-06T11:02:31.544Z,24
2016-05-06T11:03:31.671Z,24
2016-05-06T11:04:31.580Z,24
2016-05-06T11:05:31.817Z,28
2016-05-06T11:06:31.679Z,28
2016-05-06T11:07:31.885Z,24
2016-05-06T11:08:31.966Z,24
2016-05-06T11:09:32.000Z,24
2016-05-06T11:10:32.034Z,24
2016-05-06T11:11:32.209Z,24
2016-05-06T11:12:32.821Z,20
2016-05-06T11:13:32.042Z,24
2016-05-06T11:14:32.279Z,24
2016-05-06T11:15:32.313Z,24
2016-05-06T11:16:32.378Z,24
2016-05-06T11:17:32.412Z,24
2016-05-06T11:18:32.446Z,24
2016-05-06T11:19:32.542Z,20
2016-05-06T11:20:32.561Z,20
2016-05-06T11:21:32.611Z,24
2016-05-06T11:22:32.707Z,24
2016-05-06T11:23:33.053Z,20
2016-05-06T11:24:32.602Z,20
2016-05-06T11:25:32.872Z,20
2016-05-06T11:26:33.296Z,20
2016-05-06T11:27:32.924Z,20
2016-05-06T11:28:32.833Z,20
2016-05-06T11:29:32.882Z,20
2016-05-06T11:30:33.135Z,20
2016-05-06T11:31:33.153Z,20
2016-05-06T11:32:33.171Z,20
2016-05-06T11:33:33.268Z,20
2016-05-06T11:34:33.318Z,20
2016-05-06T11:35:33.335Z,20
2016-05-06T11:36:33.261Z,20
2016-05-06T11:37:33.326Z,20
2016-05-06T11:38:33.499Z,20
2016-05-06T11:39:33.410Z,16
2016-05-06T11:40:33.630Z,20
2016-05-06T11:41:33.665Z,20
2016-05-06T11:42:33.745Z,20
2016-05-06T11:43:35.248Z,20
2016-05-06T11:44:33.829Z,20
2016-05-06T11:45:33.737Z,20
2016-05-06T11:46:33.912Z,16
2016-05-06T11:47:33.962Z,16
2016-05-06T11:48:34.058Z,16
2016-05-06T11:49:34.092Z,12
2016-05-06T11:50:34.689Z,20
2016-05-06T11:51:34.520Z,20
2016-05-06T11:52:34.584Z,20
2016-05-06T11:53:34.697Z,12
2016-05-06T11:54:34.778Z,12
2016-05-06T11:55:35.124Z,16
2016-05-06T11:56:34.767Z,16
2016-05-06T11:57:35.285Z,16
2016-05-06T11:58:34.586Z,16
2016-05-06T11:59:35.275Z,12
2016-05-06T12:00:37.933Z,0
2016-05-06T12:01:35.547Z,0
2016-05-06T12:02:35.143Z,0
2016-05-06T12:03:35.208Z,0
2016-05-06T12:04:36.257Z,0
2016-05-06T12:05:35.152Z,0
2016-05-06T12:06:35.497Z,0
2016-05-06T12:07:38.749Z,0
2016-05-06T12:08:35.472Z,0
2016-05-06T12:09:35.568Z,0
2016-05-06T12:10:35.446Z,0
2016-05-06T12:11:38.979Z,0
2016-05-06T12:12:35.279Z,0
2016-05-06T12:13:35.969Z,0
2016-05-06T12:14:36.096Z,0
2016-05-06T12:15:36.381Z,0
2016-05-06T12:16:35.789Z,0
2016-05-06T12:17:36.105Z,0
2016-05-06T12:18:35.920Z,0
2016-05-06T12:19:35.720Z,0
2016-05-06T12:20:35.973Z,0
2016-05-06T12:21:36.100Z,0
2016-05-06T12:22:35.962Z,0
2016-05-06T12:23:36.200Z,0
2016-05-06T12:24:36.233Z,0
2016-05-06T12:25:36.517Z,0
2016-05-06T12:26:36.426Z,0
2016-05-06T12:27:36.351Z,0
2016-05-06T12:28:36.400Z,0
2016-05-06T12:29:36.558Z,0
2016-05-06T12:30:36.547Z,0
2016-05-06T12:31:36.830Z,0
2016-05-06T12:32:36.692Z,0
2016-05-06T12:33:36.945Z,0
2016-05-06T12:34:36.635Z,0
2016-05-06T12:35:36.997Z,0
2016-05-06T12:36:36.609Z,0
2016-05-06T12:37:37.206Z,0
2016-05-06T12:38:36.880Z,0
2016-05-06T12:39:37.070Z,0
2016-05-06T12:40:40.167Z,0
2016-05-06T12:41:37.873Z,0
2016-05-06T12:42:37.093Z,0
2016-05-06T12:43:37.129Z,0
2016-05-06T12:44:37.474Z,0
2016-05-06T12:45:37.555Z,0
2016-05-06T12:46:37.401Z,0
2016-05-06T12:47:37.514Z,0
2016-05-06T12:48:37.642Z,0
2016-05-06T12:49:37.785Z,0
2016-05-06T12:50:37.788Z,0
2016-05-06T12:51:37.462Z,0
2016-05-06T12:52:37.871Z,0
2016-05-06T12:53:40.076Z,0
2016-05-06T12:54:36.876Z,0
2016-05-06T12:55:37.879Z,0
2016-05-06T12:56:37.928Z,0
2016-05-06T12:57:38.228Z,0
2016-05-06T12:58:37.887Z,0
2016-05-06T12:59:37.875Z,0
2016-05-06T13:00:38.502Z,0
2016-05-06T13:01:38.739Z,0
2016-05-06T13:02:37.992Z,0
2016-05-06T13:03:38.057Z,0
2016-05-06T13:04:38.044Z,0
2016-05-06T13:05:38.375Z,0
2016-05-06T13:06:38.533Z,0
2016-05-06T13:07:39.708Z,0
2016-05-06T13:08:41.242Z,0
2016-05-06T13:09:41.994Z,0
2016-05-06T13:10:39.310Z,0
2016-05-06T13:11:42.141Z,0
2016-05-06T13:12:39.299Z,0
2016-05-06T13:13:38.802Z,0
2016-05-06T13:14:38.915Z,0
2016-05-06T13:15:39.121Z,0
2016-05-06T13:16:38.748Z,0
2016-05-06T13:17:39.563Z,0
2016-05-06T13:18:39.519Z,0
2016-05-06T13:19:39.335Z,0
2016-05-06T13:20:39.540Z,0
2016-05-06T13:21:39.434Z,0
2016-05-06T13:22:39.343Z,0
2016-05-06T13:23:39.549Z,0
2016-05-06T13:24:39.114Z,0
2016-05-06T13:25:39.131Z,0
2016-05-06T13:26:39.056Z,0
2016-05-06T13:27:39.075Z,0
2016-05-06T13:28:39.125Z,0
2016-05-06T13:29:39.361Z,0
2016-05-06T13:30:39.364Z,0
2016-05-06T13:31:39.429Z,0
2016-05-06T13:32:39.526Z,0
2016-05-06T13:33:39.544Z,0
2016-05-06T13:34:39.594Z,0
2016-05-06T13:35:39.533Z,0
2016-05-06T13:36:39.725Z,0
2016-05-06T13:37:39.741Z,0
2016-05-06T13:38:39.838Z,0
2016-05-06T13:39:39.857Z,0
2016-05-06T13:40:39.891Z,0
2016-05-06T13:41:40.330Z,0
2016-05-06T13:42:40.037Z,0
2016-05-06T13:43:40.055Z,0
2016-05-06T13:44:40.136Z,0
2016-05-06T13:45:40.201Z,0
2016-05-06T13:46:40.048Z,0
2016-05-06T13:47:40.268Z,0
2016-05-06T13:48:40.334Z,0
2016-05-06T13:49:40.384Z,0
2016-05-06T13:50:40.448Z,0
2016-05-06T13:51:40.326Z,0
2016-05-06T13:52:40.532Z,0
2016-05-06T13:53:40.613Z,0
2016-05-06T13:54:40.632Z,0
2016-05-06T13:55:40.681Z,0
2016-05-06T13:56:40.746Z,0
2016-05-06T13:57:40.796Z,0
2016-05-06T13:58:40.830Z,0
2016-05-06T13:59:40.614Z,0
2016-05-06T14:00:40.975Z,0
2016-05-06T14:01:41.025Z,0
2016-05-06T14:02:40.887Z,0
2016-05-06T14:03:40.953Z,0
2016-05-06T14:04:41.189Z,0
2016-05-06T14:05:41.224Z,0
2016-05-06T14:06:41.258Z,0
2016-05-06T14:07:41.339Z,0
2016-05-06T14:08:41.403Z,0
2016-05-06T14:09:41.297Z,0
2016-05-06T14:10:41.503Z,0
2016-05-06T14:11:41.256Z,0
2016-05-06T14:12:41.430Z,0
2016-05-06T14:13:41.667Z,0
2016-05-06T14:14:41.685Z,0
2016-05-06T14:15:41.751Z,0
2016-05-06T14:16:41.816Z,0
2016-05-06T14:17:41.579Z,0
2016-05-06T14:18:41.859Z,0
2016-05-06T14:19:41.936Z,0
2016-05-06T14:20:42.171Z,0
2016-05-06T14:21:42.296Z,0
2016-05-06T14:22:42.378Z,0
2016-05-06T14:23:42.240Z,0
2016-05-06T14:24:42.493Z,0
2016-05-06T14:25:42.434Z,0
2016-05-06T14:26:43.295Z,0
2016-05-06T14:27:48.179Z,0
2016-05-06T14:28:42.595Z,0
2016-05-06T14:29:42.478Z,0
2016-05-06T14:30:42.846Z,0
2016-05-06T14:31:42.776Z,4
2016-05-06T14:32:42.671Z,0
2016-05-06T14:33:43.005Z,4
2016-05-06T14:34:43.102Z,0
2016-05-06T14:35:42.998Z,4